createdAt,value
2023-03-22T00:00:56.545Z,80.44
2023-03-22T00:02:58.188Z,80.02
2023-03-22T00:04:59.619Z,81.23
2023-03-22T00:07:01.289Z,80.74
2023-03-22T00:09:02.777Z,81.03
2023-03-22T00:11:05.258Z,81.21
2023-03-22T00:13:08.930Z,80.07
2023-03-22T00:15:11.182Z,80.00
2023-03-22T00:17:12.608Z,79.58
2023-03-22T00:19:14.028Z,79.50
2023-03-22T00:21:16.956Z,79.38
2023-03-22T00:23:18.588Z,79.31
2023-03-22T00:25:20.049Z,78.95
2023-03-22T00:27:21.423Z,79.36
2023-03-22T00:29:24.066Z,79.16
2023-03-22T00:31:25.577Z,78.84
2023-03-22T00:33:28.936Z,79.37
2023-03-22T00:35:30.710Z,78.95
2023-03-22T00:37:33.895Z,79.58
2023-03-22T00:39:35.293Z,79.17
2023-03-22T00:41:36.702Z,78.95
2023-03-22T00:43:38.402Z,78.83
2023-03-22T00:45:40.957Z,78.12
2023-03-22T00:47:42.392Z,78.74
2023-03-22T00:49:43.840Z,78.02
2023-03-22T00:51:45.390Z,78.54
2023-03-22T00:53:49.896Z,78.60
2023-03-22T00:55:51.402Z,78.33
2023-03-22T00:57:52.793Z,78.01
2023-03-22T00:59:55.821Z,78.39
2023-03-22T01:01:58.872Z,78.04
2023-03-22T01:04:00.375Z,77.87
2023-03-22T01:06:04.605Z,78.50
2023-03-22T01:08:08.285Z,77.25
2023-03-22T01:10:11.351Z,78.10
2023-03-22T01:12:13.017Z,78.09
2023-03-22T01:14:14.407Z,77.89
2023-03-22T01:16:17.086Z,78.10
2023-03-22T01:18:18.871Z,78.88
2023-03-22T01:20:20.658Z,78.40
2023-03-22T01:22:22.119Z,78.52
2023-03-22T01:24:23.781Z,78.81
2023-03-22T01:26:25.160Z,78.44
2023-03-22T01:28:27.420Z,78.52
2023-03-22T01:30:29.705Z,78.78
2023-03-22T01:32:31.108Z,79.07
2023-03-22T01:34:32.522Z,78.69
2023-03-22T01:36:34.015Z,79.48
2023-03-22T01:38:35.483Z,79.40
2023-03-22T01:40:37.044Z,78.73
2023-03-22T01:42:38.567Z,78.49
2023-03-22T01:44:45.038Z,79.21
2023-03-22T01:46:48.691Z,78.83
2023-03-22T01:48:50.106Z,78.95
2023-03-22T01:51:03.013Z,78.69
2023-03-22T01:53:08.267Z,79.45
2023-03-22T01:55:10.109Z,79.30
2023-03-22T01:57:12.112Z,79.20
2023-03-22T01:59:15.536Z,79.38
2023-03-22T02:01:17.113Z,79.04
2023-03-22T02:03:26.842Z,79.57
2023-03-22T02:05:29.022Z,79.58
2023-03-22T02:07:31.777Z,79.00
2023-03-22T02:09:34.073Z,79.15
2023-03-22T02:11:38.989Z,80.50
2023-03-22T02:14:06.265Z,79.04
2023-03-22T02:16:29.741Z,79.39
2023-03-22T02:18:54.594Z,79.61
2023-03-22T02:21:05.481Z,79.04
2023-03-22T02:23:43.522Z,79.33
2023-03-22T02:26:09.462Z,79.32
2023-03-22T02:28:29.374Z,79.62
2023-03-22T02:30:49.138Z,79.39
2023-03-22T02:33:00.120Z,80.51
2023-03-22T02:35:23.226Z,80.53
2023-03-22T02:38:09.525Z,79.95
2023-03-22T02:40:42.838Z,80.00
2023-03-22T02:42:50.978Z,80.47
2023-03-22T02:45:07.503Z,80.74
2023-03-22T02:47:24.433Z,80.91
2023-03-22T02:49:47.648Z,80.28
2023-03-22T02:51:55.772Z,80.24
2023-03-22T02:54:09.617Z,80.69
2023-03-22T02:56:16.760Z,80.90
2023-03-22T02:58:45.814Z,80.60
2023-03-22T03:00:51.024Z,80.81
2023-03-22T03:02:57.504Z,80.95
2023-03-22T03:04:59.411Z,80.76
2023-03-22T03:07:09.738Z,80.44
2023-03-22T03:09:13.667Z,80.47
2023-03-22T03:11:15.158Z,80.59
2023-03-22T03:13:18.733Z,81.25
2023-03-22T03:15:23.766Z,80.01
2023-03-22T03:17:50.224Z,80.79
2023-03-22T03:20:21.967Z,80.39
2023-03-22T03:22:43.499Z,81.02
2023-03-22T03:25:14.692Z,81.56
2023-03-22T03:27:25.635Z,81.97
2023-03-22T03:29:55.931Z,81.96
2023-03-22T03:32:16.460Z,81.30
2023-03-22T03:34:20.565Z,81.66
2023-03-22T03:36:24.489Z,81.58
2023-03-22T03:38:29.703Z,81.77
2023-03-22T03:40:36.105Z,81.90
2023-03-22T03:42:43.359Z,82.02
2023-03-22T03:44:45.394Z,82.36
2023-03-22T03:46:48.840Z,82.95
2023-03-22T03:48:52.804Z,82.08
2023-03-22T03:50:56.060Z,82.85
2023-03-22T03:52:58.414Z,82.77
2023-03-22T03:55:00.036Z,82.73
2023-03-22T03:57:04.010Z,82.71
2023-03-22T03:59:05.818Z,83.29
2023-03-22T04:01:07.525Z,83.39
2023-03-22T04:03:09.074Z,83.01
2023-03-22T04:05:12.073Z,83.56
2023-03-22T04:07:13.451Z,83.44
2023-03-22T04:09:14.845Z,83.88
2023-03-22T04:11:16.267Z,84.21
2023-03-22T04:13:21.408Z,84.46
2023-03-22T04:15:24.057Z,83.79
2023-03-22T04:17:27.060Z,84.85
2023-03-22T04:19:28.427Z,84.58
2023-03-22T04:21:29.885Z,84.25
2023-03-22T04:23:33.095Z,84.44
2023-03-22T04:25:37.793Z,84.97
2023-03-22T04:27:40.528Z,84.95
2023-03-22T04:29:48.496Z,84.96
2023-03-22T04:31:50.371Z,85.34
2023-03-22T04:33:56.477Z,85.13
2023-03-22T04:35:59.308Z,85.00
2023-03-22T04:38:01.420Z,85.23
2023-03-22T04:40:06.749Z,85.15
2023-03-22T04:42:08.678Z,85.08
2023-03-22T04:44:10.144Z,85.20
2023-03-22T04:46:12.628Z,85.11
2023-03-22T04:48:14.178Z,85.16
2023-03-22T04:50:15.703Z,84.99
2023-03-22T04:52:17.244Z,85.95
2023-03-22T04:54:18.816Z,85.87
2023-03-22T04:56:20.890Z,85.31
2023-03-22T04:58:26.154Z,85.71
2023-03-22T05:00:30.085Z,85.95
2023-03-22T05:02:32.144Z,86.13
2023-03-22T05:04:33.546Z,85.91
2023-03-22T05:06:35.022Z,85.58
2023-03-22T05:08:36.591Z,86.17
2023-03-22T05:10:40.542Z,86.23
2023-03-22T05:12:42.212Z,85.87
2023-03-22T05:14:43.694Z,86.14
2023-03-22T05:16:45.174Z,85.74
2023-03-22T05:18:46.772Z,85.75
2023-03-22T05:20:48.692Z,85.14
2023-03-22T05:22:50.484Z,85.26
2023-03-22T05:24:51.956Z,85.18
2023-03-22T05:26:53.861Z,85.51
2023-03-22T05:28:55.711Z,85.43
2023-03-22T05:30:57.491Z,85.16
2023-03-22T05:33:03.023Z,85.56
2023-03-22T05:35:04.975Z,85.55
2023-03-22T05:37:06.441Z,85.09
2023-03-22T05:39:08.103Z,84.98
2023-03-22T05:41:10.565Z,85.48
2023-03-22T05:43:12.629Z,84.49
2023-03-22T05:45:14.273Z,84.93
2023-03-22T05:47:15.992Z,85.36
2023-03-22T05:49:17.435Z,84.88
2023-03-22T05:51:19.218Z,84.84
2023-03-22T05:53:20.678Z,84.81
2023-03-22T05:55:23.142Z,84.56
2023-03-22T05:57:24.652Z,84.71
2023-03-22T05:59:27.044Z,84.30
2023-03-22T06:01:28.419Z,84.41
2023-03-22T06:03:29.885Z,84.75
2023-03-22T06:05:32.030Z,84.33
2023-03-22T06:07:33.466Z,84.05
2023-03-22T06:09:34.888Z,83.54
2023-03-22T06:11:36.316Z,83.95
2023-03-22T06:13:37.866Z,83.14
2023-03-22T06:15:39.254Z,83.28
2023-03-22T06:17:41.474Z,83.17
2023-03-22T06:19:42.912Z,83.20
2023-03-22T06:21:44.323Z,83.78
2023-03-22T06:23:45.778Z,82.86
2023-03-22T06:25:47.559Z,83.07
2023-03-22T06:27:49.105Z,82.58
2023-03-22T06:29:54.581Z,82.65
2023-03-22T06:31:56.026Z,81.89
2023-03-22T06:33:57.471Z,82.51
2023-03-22T06:36:00.744Z,82.29
2023-03-22T06:38:02.256Z,82.18
2023-03-22T06:40:04.351Z,82.27
2023-03-22T06:42:06.365Z,81.81
2023-03-22T06:44:07.731Z,81.30
2023-03-22T06:46:09.209Z,80.80
2023-03-22T06:48:10.910Z,81.18
2023-03-22T06:50:12.735Z,81.10
2023-03-22T06:52:14.285Z,80.47
2023-03-22T06:54:19.481Z,80.37
2023-03-22T06:56:20.852Z,80.24
2023-03-22T06:58:22.533Z,80.53
2023-03-22T07:00:24.101Z,80.57
2023-03-22T07:02:25.499Z,80.72
2023-03-22T07:04:28.080Z,79.93
2023-03-22T07:06:30.811Z,79.73
2023-03-22T07:08:32.356Z,80.12
2023-03-22T07:10:33.753Z,79.59
2023-03-22T07:12:35.987Z,79.46
2023-03-22T07:14:37.480Z,79.03
2023-03-22T07:16:38.838Z,79.64
2023-03-22T07:18:40.250Z,79.43
2023-03-22T07:20:42.473Z,78.51
2023-03-22T07:22:44.349Z,78.67
2023-03-22T07:24:56.207Z,78.94
2023-03-22T07:26:58.493Z,79.53
2023-03-22T07:28:59.965Z,78.72
2023-03-22T07:31:07.780Z,79.11
2023-03-22T07:33:10.480Z,78.36
2023-03-22T07:35:11.926Z,78.69
2023-03-22T07:37:13.384Z,78.82
2023-03-22T07:39:14.825Z,78.17
2023-03-22T07:41:16.290Z,77.96
2023-03-22T07:43:17.693Z,77.84
2023-03-22T07:45:20.348Z,76.57
2023-03-22T07:47:37.746Z,77.78
2023-03-22T07:49:41.588Z,76.64
2023-03-22T07:51:42.995Z,77.07
2023-03-22T07:53:44.446Z,76.37
2023-03-22T07:55:47.655Z,74.13
2023-03-22T07:57:49.143Z,74.73
2023-03-22T07:59:50.641Z,74.91
2023-03-22T08:01:52.133Z,74.07
2023-03-22T08:03:53.574Z,73.82
2023-03-22T08:05:54.963Z,73.14
2023-03-22T08:07:56.891Z,73.43
2023-03-22T08:09:59.270Z,71.84
2023-03-22T08:12:00.790Z,71.19
2023-03-22T08:14:02.288Z,70.97
2023-03-22T08:16:04.198Z,70.69
2023-03-22T08:18:05.613Z,70.79
2023-03-22T08:20:08.885Z,71.19
2023-03-22T08:22:11.890Z,70.20
2023-03-22T08:24:15.802Z,70.07
2023-03-22T08:26:17.698Z,70.55
2023-03-22T08:28:19.618Z,71.52
2023-03-22T08:30:22.302Z,70.71
2023-03-22T08:32:24.243Z,70.59
2023-03-22T08:34:25.669Z,69.97
2023-03-22T08:36:27.151Z,70.04
2023-03-22T08:38:28.549Z,70.54
2023-03-22T08:40:30.322Z,70.29
2023-03-22T08:42:31.817Z,69.75
2023-03-22T08:44:33.193Z,69.40
2023-03-22T08:46:34.810Z,69.34
2023-03-22T08:48:37.854Z,68.58
2023-03-22T08:50:39.760Z,69.12
2023-03-22T08:52:41.194Z,69.15
2023-03-22T08:54:42.816Z,69.52
2023-03-22T08:56:44.596Z,69.30
2023-03-22T08:58:46.978Z,69.61
2023-03-22T09:00:49.811Z,69.33
2023-03-22T09:02:51.355Z,68.90
2023-03-22T09:04:53.363Z,68.30
2023-03-22T09:06:54.800Z,68.31
2023-03-22T09:08:56.630Z,67.86
2023-03-22T09:10:58.059Z,67.97
2023-03-22T09:12:59.591Z,66.91
2023-03-22T09:15:01.006Z,67.41
2023-03-22T09:17:02.577Z,67.46
2023-03-22T09:19:04.239Z,66.37
2023-03-22T09:21:07.328Z,66.15
2023-03-22T09:23:08.729Z,63.92
2023-03-22T09:25:12.648Z,64.85
2023-03-22T09:27:14.503Z,64.82
2023-03-22T09:29:15.970Z,64.46
2023-03-22T09:31:20.348Z,64.01
2023-03-22T09:33:23.081Z,63.87
2023-03-22T09:35:24.530Z,63.92
2023-03-22T09:37:30.163Z,63.30
2023-03-22T09:39:31.607Z,61.55
2023-03-22T09:41:57.079Z,60.80
2023-03-22T09:44:02.923Z,61.98
2023-03-22T09:46:11.087Z,61.24
2023-03-22T09:48:27.503Z,60.89
2023-03-22T09:50:32.340Z,60.40
2023-03-22T09:52:34.445Z,58.70
2023-03-22T09:54:39.494Z,60.09
2023-03-22T09:56:41.159Z,59.20
2023-03-22T09:58:55.236Z,58.85
2023-03-22T10:01:20.762Z,58.89
2023-03-22T10:03:37.547Z,57.93
2023-03-22T10:05:50.116Z,60.84
2023-03-22T10:08:00.410Z,57.11
2023-03-22T10:10:28.723Z,56.91
2023-03-22T10:12:42.623Z,57.77
2023-03-22T10:15:01.953Z,57.35
2023-03-22T10:17:05.963Z,57.25
2023-03-22T10:19:19.329Z,58.44
2023-03-22T10:21:21.285Z,57.10
2023-03-22T10:23:29.951Z,57.20
2023-03-22T10:25:36.986Z,56.57
2023-03-22T10:27:38.506Z,56.30
2023-03-22T10:29:43.519Z,55.64
2023-03-22T10:31:45.950Z,57.97
2023-03-22T10:34:06.558Z,57.00
2023-03-22T10:36:13.764Z,58.50
2023-03-22T10:38:23.621Z,55.90
2023-03-22T10:40:28.517Z,56.11
2023-03-22T10:42:31.064Z,55.39
2023-03-22T10:44:47.971Z,58.41
2023-03-22T10:46:51.706Z,56.49
2023-03-22T10:49:01.026Z,55.59
2023-03-22T10:51:04.113Z,55.20
2023-03-22T10:53:36.993Z,55.55
2023-03-22T10:55:43.864Z,55.38
2023-03-22T10:58:00.130Z,55.27
2023-03-22T11:00:08.301Z,55.49
2023-03-22T11:02:26.415Z,54.80
2023-03-22T11:04:31.267Z,55.04
2023-03-22T11:06:36.804Z,56.01
2023-03-22T11:08:50.699Z,55.20
2023-03-22T11:10:54.998Z,54.85
2023-03-22T11:13:12.191Z,54.72
2023-03-22T11:15:27.939Z,54.84
2023-03-22T11:17:31.110Z,54.62
2023-03-22T11:19:38.063Z,54.06
2023-03-22T11:21:43.151Z,55.74
2023-03-22T11:23:53.937Z,53.98
2023-03-22T11:25:56.993Z,54.92
2023-03-22T11:28:16.959Z,55.46
2023-03-22T11:30:31.537Z,54.52
2023-03-22T11:32:37.208Z,55.65
2023-03-22T11:37:08.400Z,53.90
2023-03-22T11:39:11.853Z,54.83
2023-03-22T11:41:26.383Z,54.61
2023-03-22T11:43:40.493Z,53.98
2023-03-22T11:45:43.952Z,52.27
2023-03-22T11:51:12.502Z,51.51
2023-03-22T11:53:17.722Z,52.52
2023-03-22T11:55:19.653Z,52.17
2023-03-22T11:57:27.809Z,52.57
2023-03-22T11:59:36.672Z,52.46
2023-03-22T12:01:52.139Z,52.25
2023-03-22T12:03:57.203Z,53.75
2023-03-22T12:06:04.529Z,52.81
2023-03-22T12:08:16.074Z,52.47
2023-03-22T12:10:25.074Z,53.76
2023-03-22T12:12:31.187Z,54.77
2023-03-22T12:14:54.348Z,54.02
2023-03-22T12:17:10.974Z,54.12
2023-03-22T12:19:26.994Z,54.13
2023-03-22T12:21:29.035Z,55.07
2023-03-22T12:23:32.603Z,54.65
2023-03-22T12:25:36.663Z,55.32
2023-03-22T12:27:41.581Z,55.97
2023-03-22T12:29:51.490Z,55.67
2023-03-22T12:32:08.385Z,54.92
2023-03-22T12:34:16.874Z,54.48
2023-03-22T12:36:22.036Z,54.24
2023-03-22T12:38:35.449Z,53.32
2023-03-22T12:40:40.853Z,53.91
2023-03-22T12:43:06.731Z,54.50
2023-03-22T12:45:15.573Z,54.22
2023-03-22T12:47:17.142Z,54.83
2023-03-22T12:49:34.669Z,55.49
2023-03-22T12:51:36.771Z,54.48
2023-03-22T12:53:45.650Z,54.93
2023-03-22T12:55:48.538Z,53.39
2023-03-22T12:57:54.461Z,53.98
2023-03-22T13:00:01.536Z,53.52
2023-03-22T13:02:15.957Z,53.21
2023-03-22T13:04:37.026Z,53.85
2023-03-22T13:06:41.445Z,53.81
2023-03-22T13:09:04.521Z,53.69
2023-03-22T13:11:06.245Z,53.79
2023-03-22T13:13:31.677Z,54.11
2023-03-22T13:15:41.814Z,53.05
2023-03-22T13:17:45.279Z,53.59
2023-03-22T13:20:19.884Z,53.37
2023-03-22T13:22:44.181Z,54.59
2023-03-22T13:25:17.102Z,55.25
2023-03-22T13:27:19.011Z,55.11
2023-03-22T13:29:20.530Z,55.75
2023-03-22T13:31:40.803Z,55.08
2023-03-22T13:33:43.128Z,55.68
2023-03-22T13:35:51.140Z,55.15
2023-03-22T13:37:53.196Z,55.93
2023-03-22T13:39:54.630Z,55.47
2023-03-22T13:42:08.141Z,56.74
2023-03-22T13:44:26.909Z,55.93
2023-03-22T13:46:44.520Z,54.89
2023-03-22T13:48:52.377Z,55.53
2023-03-22T13:50:54.260Z,56.71
2023-03-22T13:53:14.631Z,56.40
2023-03-22T13:55:43.517Z,56.85
2023-03-22T13:57:45.456Z,56.33
2023-03-22T14:00:15.556Z,57.41
2023-03-22T14:02:33.710Z,57.21
2023-03-22T14:04:48.658Z,57.59
2023-03-22T14:06:56.039Z,57.92
2023-03-22T14:09:02.421Z,58.15
2023-03-22T14:11:20.082Z,57.96
2023-03-22T14:14:04.242Z,58.17
2023-03-22T14:16:42.927Z,57.93
2023-03-22T14:18:48.645Z,58.08
2023-03-22T14:20:59.007Z,57.46
